Billie H — WCY4992 — position and weather

sailwx.info

Track history (hours):
 
Tides and Currents Weather Stations Pressure Air Temp Water Temp Dewpoint Dewpoint Depression Visibility Wind Speed Wind Dir Waves Ship Positions

Billie H

Owner: BOYER TOWING INC, KETCHIKAN, AK. More information available from US FCC via Universal Licensing System and Coast Guard Vessel Documentation Center.

Last reported at 2016-Apr-25 22:33 UTC. Time now 2016-May-03 06:54 UTC.
Position N 47°32' W 122°20'.

Type: Tug. MMSI: 366751770.

Date/timePositionNaut miles runAvg speedWind from/ knotsBaromVisibWave heightAir tempDewpointWater temp
2016-Apr-25 22:33N 47°32' W 122°20'0 0.0
2016-Apr-25 21:34N 47°32' W 122°20'0 0.0
2016-Apr-25 20:33N 47°32' W 122°20'0 0.0
2016-Apr-25 19:33N 47°32' W 122°20'0 0.0
2016-Apr-25 18:33N 47°32' W 122°20'  
2016-Apr-16 22:27N 47°32' W 122°20'3 3.9
2016-Apr-16 21:34N 47°35' W 122°22'0 0.1
2016-Apr-16 20:33N 47°35' W 122°22'7 6.5
2016-Apr-16 19:33N 47°41' W 122°28'9 9.2
2016-Apr-16 18:34N 47°50' W 122°28'9 8.8
2016-Apr-16 17:32N 47°58' W 122°35'24 7.8
2016-Apr-16 14:26N 48°12' W 123°05'7 7.4
2016-Apr-16 13:31N 48°11' W 123°15'7 7.8
2016-Apr-16 12:33N 48°11' W 123°26'9 8.5
2016-Apr-16 11:33N 48°12' W 123°39'9 8.8
2016-Apr-16 10:32N 48°12' W 123°52'  
Track history (hours):
 
Tides and Currents Weather Stations Pressure Air Temp Water Temp Dewpoint Dewpoint Depression Visibility Wind Speed Wind Dir Waves Ship Positions

Billie H

Owner: BOYER TOWING INC, KETCHIKAN, AK. More information available from US FCC via Universal Licensing System and Coast Guard Vessel Documentation Center.

Last reported at 2016-Apr-25 22:33 UTC. Time now 2016-May-03 06:54 UTC.
Position N 47°32' W 122°20'.

Type: Tug. MMSI: 366751770.

Date/timePositionNaut miles runAvg speedWind from/ knotsBaromVisibWave heightAir tempDewpointWater temp
2016-Apr-25 22:33N 47°32' W 122°20'0 0.0
2016-Apr-25 21:34N 47°32' W 122°20'0 0.0
2016-Apr-25 20:33N 47°32' W 122°20'0 0.0
2016-Apr-25 19:33N 47°32' W 122°20'0 0.0
2016-Apr-25 18:33N 47°32' W 122°20'  
2016-Apr-16 22:27N 47°32' W 122°20'3 3.9
2016-Apr-16 21:34N 47°35' W 122°22'0 0.1
2016-Apr-16 20:33N 47°35' W 122°22'7 6.5
2016-Apr-16 19:33N 47°41' W 122°28'9 9.2
2016-Apr-16 18:34N 47°50' W 122°28'9 8.8
2016-Apr-16 17:32N 47°58' W 122°35'24 7.8
2016-Apr-16 14:26N 48°12' W 123°05'7 7.4
2016-Apr-16 13:31N 48°11' W 123°15'7 7.8
2016-Apr-16 12:33N 48°11' W 123°26'9 8.5
2016-Apr-16 11:33N 48°12' W 123°39'9 8.8
2016-Apr-16 10:32N 48°12' W 123°52'  

Dump ship's entire track history